Time;durP1;ratioP1;P1;durP2;ratioP2;P2;SDS_P1;SDS_P2;PMS_P1;PMS_P2;Temp;Humidity;BMP_temperature;BMP_pressure;BME280_temperature;BME280_humidity;BME280_pressure;Samples;Min_cycle;Max_cycle;Signal;HPM_P1;HPM_P2
2023/06/27 00:01:20;;;;;;;4.50;2.30;;;16.90;63.40;;;;;;5082564;28;20428;-71
2023/06/27 00:03:46;;;;;;;3.03;1.67;;;16.90;63.90;;;;;;5100720;28;20269;-71
2023/06/27 00:06:19;;;;;;;3.37;1.43;;;16.80;64.10;;;;;;5117083;28;20211;-70
2023/06/27 00:08:49;;;;;;;2.50;1.43;;;16.80;64.40;;;;;;5097454;28;20180;-70
2023/06/27 00:11:15;;;;;;;2.50;2.00;;;16.70;65.00;;;;;;5097604;28;20430;-70
2023/06/27 00:13:41;;;;;;;7.20;2.03;;;16.80;65.00;;;;;;5103095;28;20415;-71
2023/06/27 00:16:14;;;;;;;4.73;2.60;;;16.70;65.10;;;;;;5106367;28;20486;-69
2023/06/27 00:18:47;;;;;;;3.17;1.50;;;16.80;65.30;;;;;;5119100;28;20433;-71
2023/06/27 00:21:15;;;;;;;4.17;1.63;;;16.80;65.40;;;;;;5108443;28;20425;-71
2023/06/27 00:23:42;;;;;;;2.63;1.70;;;16.80;65.60;;;;;;5097845;28;20418;-71
2023/06/27 00:26:09;;;;;;;4.00;1.80;;;16.80;65.70;;;;;;5099836;28;20465;-70
2023/06/27 00:28:34;;;;;;;2.70;1.63;;;16.80;65.80;;;;;;5117359;28;20689;-70
2023/06/27 00:31:00;;;;;;;4.10;1.63;;;16.80;66.30;;;;;;5074969;28;20438;-69
2023/06/27 00:33:26;;;;;;;3.40;1.43;;;16.80;66.90;;;;;;5097471;28;20590;-71
2023/06/27 00:35:52;;;;;;;1.77;1.40;;;16.70;66.90;;;;;;5097172;28;20212;-71
2023/06/27 00:38:18;;;;;;;4.17;1.70;;;16.70;67.20;;;;;;5116385;28;20183;-71
2023/06/27 00:40:43;;;;;;;2.70;1.70;;;16.70;67.70;;;;;;5101078;28;20202;-71
2023/06/27 00:43:09;;;;;;;2.80;1.60;;;16.70;68.00;;;;;;5097470;28;20415;-69
2023/06/27 00:45:34;;;;;;;4.00;1.43;;;16.70;68.20;;;;;;5096029;28;20215;-73
2023/06/27 00:48:00;;;;;;;5.33;1.27;;;16.70;68.70;;;;;;5078894;28;20187;-70
2023/06/27 00:50:27;;;;;;;1.87;1.30;;;16.70;68.80;;;;;;5077997;28;20207;-71
2023/06/27 00:52:54;;;;;;;4.33;1.30;;;16.70;69.10;;;;;;5117886;28;20477;-70
2023/06/27 00:55:21;;;;;;;2.10;1.40;;;16.70;69.30;;;;;;5088587;28;20454;-72
2023/06/27 00:57:47;;;;;;;3.40;1.30;;;16.70;69.70;;;;;;5097089;28;20494;-70
2023/06/27 01:00:15;;;;;;;1.83;1.13;;;16.60;69.90;;;;;;5077887;28;20490;-69
2023/06/27 01:02:42;;;;;;;1.57;1.10;;;16.60;70.10;;;;;;5115246;28;20417;-70
2023/06/27 01:05:09;;;;;;;1.73;1.17;;;16.60;70.40;;;;;;5085322;28;20540;-70
2023/06/27 01:08:01;;;;;;;3.23;1.43;;;16.60;70.90;;;;;;5099091;28;20425;-71
2023/06/27 01:10:44;;;;;;;2.93;1.50;;;16.60;71.20;;;;;;5094502;28;20885;-70
2023/06/27 01:13:19;;;;;;;3.40;1.30;;;16.60;71.40;;;;;;5078914;28;20411;-71
2023/06/27 01:15:45;;;;;;;2.87;1.47;;;16.60;71.70;;;;;;5070066;28;20538;-69
2023/06/27 01:18:12;;;;;;;3.17;1.83;;;16.50;71.90;;;;;;5100200;28;20409;-70
2023/06/27 01:20:38;;;;;;;4.33;1.60;;;16.50;72.20;;;;;;5115999;28;20496;-69
2023/06/27 01:23:18;;;;;;;3.60;2.00;;;16.60;72.90;;;;;;5109404;28;20414;-70
2023/06/27 01:25:44;;;;;;;3.17;1.50;;;16.50;73.00;;;;;;5111808;28;20409;-70
2023/06/27 01:28:14;;;;;;;2.60;1.37;;;16.60;73.60;;;;;;5116853;28;20398;-71
2023/06/27 01:30:40;;;;;;;3.33;1.33;;;16.50;73.90;;;;;;5106350;28;20298;-70
2023/06/27 01:33:17;;;;;;;3.23;1.50;;;16.50;74.30;;;;;;5095060;28;20421;-70
2023/06/27 01:35:55;;;;;;;2.30;1.53;;;16.50;74.80;;;;;;5076055;28;20451;-71
2023/06/27 01:38:33;;;;;;;2.23;1.30;;;16.50;75.10;;;;;;5058257;28;20407;-70
2023/06/27 01:41:01;;;;;;;3.30;1.47;;;16.50;76.20;;;;;;5110669;28;20467;-71
2023/06/27 01:43:29;;;;;;;2.83;1.50;;;16.50;75.50;;;;;;5083616;28;20480;-71
2023/06/27 01:45:55;;;;;;;2.47;1.53;;;16.50;75.60;;;;;;5088761;28;20434;-71
2023/06/27 01:48:22;;;;;;;2.00;1.30;;;16.50;75.90;;;;;;5067830;28;20453;-70
2023/06/27 01:50:52;;;;;;;2.13;1.27;;;16.50;76.10;;;;;;5091755;28;20433;-71
2023/06/27 01:53:17;;;;;;;2.37;1.20;;;16.50;76.30;;;;;;5098701;28;20405;-70
2023/06/27 01:55:45;;;;;;;2.77;1.27;;;16.50;76.40;;;;;;5100203;28;20449;-71
2023/06/27 01:58:12;;;;;;;2.63;1.50;;;16.50;76.50;;;;;;5082275;28;20841;-70
2023/06/27 02:00:38;;;;;;;1.73;1.17;;;16.50;76.60;;;;;;5077709;28;20922;-70
2023/06/27 02:03:04;;;;;;;1.60;1.10;;;16.50;76.70;;;;;;5075721;28;20443;-70
2023/06/27 02:05:29;;;;;;;1.97;1.00;;;16.50;76.80;;;;;;5108066;28;20218;-69
2023/06/27 02:07:55;;;;;;;2.20;1.33;;;16.50;76.90;;;;;;5086180;28;20279;-70
2023/06/27 02:10:21;;;;;;;2.00;1.00;;;16.50;77.10;;;;;;5082470;28;20344;-70
2023/06/27 02:12:46;;;;;;;2.00;1.20;;;16.40;77.40;;;;;;5095676;28;20321;-70
2023/06/27 02:15:12;;;;;;;1.67;1.10;;;16.40;78.00;;;;;;5074775;28;20566;-71
2023/06/27 02:17:38;;;;;;;1.80;1.40;;;16.30;78.70;;;;;;5057333;28;20639;-71
2023/06/27 02:20:04;;;;;;;2.17;1.30;;;16.30;79.40;;;;;;5100269;28;20542;-70
2023/06/27 02:22:32;;;;;;;1.70;1.20;;;16.30;80.10;;;;;;5077339;28;20176;-70
2023/06/27 02:24:58;;;;;;;2.20;1.20;;;16.30;80.50;;;;;;5087853;28;20549;-70
2023/06/27 02:27:24;;;;;;;2.57;1.33;;;16.30;80.90;;;;;;5109337;28;20313;-70
2023/06/27 02:29:49;;;;;;;2.40;1.57;;;16.30;81.60;;;;;;5093236;28;20215;-71
2023/06/27 02:32:15;;;;;;;2.10;1.40;;;16.30;82.70;;;;;;5114364;28;20413;-70
2023/06/27 02:34:40;;;;;;;5.40;1.67;;;16.30;83.20;;;;;;5096038;28;20480;-71
2023/06/27 02:37:11;;;;;;;2.13;1.37;;;16.20;83.30;;;;;;5096082;28;20205;-71
2023/06/27 02:39:36;;;;;;;2.50;1.60;;;16.20;84.70;;;;;;5097545;28;20463;-72
2023/06/27 02:42:02;;;;;;;3.00;1.63;;;16.10;84.70;;;;;;5108458;28;20602;-71
2023/06/27 02:44:28;;;;;;;1.80;1.50;;;16.00;85.70;;;;;;5077596;28;20259;-70
2023/06/27 02:46:54;;;;;;;6.23;1.67;;;16.00;87.40;;;;;;5076066;28;20561;-70
2023/06/27 02:49:19;;;;;;;1.93;1.13;;;16.10;87.90;;;;;;5114391;28;20211;-70
2023/06/27 02:51:45;;;;;;;1.53;1.10;;;16.10;88.10;;;;;;5105689;28;20187;-70
2023/06/27 02:54:11;;;;;;;5.00;1.53;;;16.00;88.30;;;;;;5116250;28;20179;-69
2023/06/27 02:56:38;;;;;;;2.60;1.40;;;16.00;89.00;;;;;;5097132;28;20193;-72
2023/06/27 02:59:04;;;;;;;2.03;1.20;;;16.00;89.40;;;;;;5096814;28;20430;-70
2023/06/27 03:01:30;;;;;;;1.80;1.00;;;16.00;89.70;;;;;;5064547;28;20177;-70
2023/06/27 03:03:55;;;;;;;1.70;1.50;;;16.00;89.90;;;;;;5115348;28;20276;-71
2023/06/27 03:06:22;;;;;;;2.80;1.63;;;16.00;90.10;;;;;;5097585;28;20777;-70
2023/06/27 03:08:49;;;;;;;3.23;1.60;;;16.10;90.40;;;;;;5096179;28;20207;-70
2023/06/27 03:11:15;;;;;;;5.60;2.10;;;16.10;90.50;;;;;;5084144;28;20845;-70
2023/06/27 03:13:41;;;;;;;2.50;1.73;;;16.10;90.70;;;;;;5097383;28;20418;-71
2023/06/27 03:16:07;;;;;;;3.20;1.80;;;16.20;90.70;;;;;;5082220;28;20787;-70
2023/06/27 03:18:33;;;;;;;5.47;1.73;;;16.20;90.70;;;;;;5082741;28;20433;-70
2023/06/27 03:20:59;;;;;;;3.63;1.73;;;16.20;90.60;;;;;;5096614;28;20894;-69
2023/06/27 03:23:25;;;;;;;1.50;1.40;;;16.30;90.90;;;;;;5089910;28;20421;-70
2023/06/27 03:25:52;;;;;;;3.13;1.70;;;16.30;91.10;;;;;;5077005;28;20214;-69
2023/06/27 03:28:18;;;;;;;3.30;1.87;;;16.30;91.20;;;;;;5089483;28;20416;-69
2023/06/27 03:30:51;;;;;;;3.20;1.63;;;16.30;91.30;;;;;;5096304;28;20445;-72
2023/06/27 03:33:17;;;;;;;1.83;1.37;;;16.30;91.40;;;;;;5094996;28;20426;-71
2023/06/27 03:35:44;;;;;;;2.37;1.50;;;16.30;91.60;;;;;;5081257;28;20753;-70
2023/06/27 03:38:09;;;;;;;3.30;1.80;;;16.30;91.80;;;;;;5068691;28;20437;-68
2023/06/27 03:40:35;;;;;;;4.07;2.10;;;16.30;92.00;;;;;;5098521;28;20191;-72
2023/06/27 03:43:02;;;;;;;3.60;2.30;;;16.30;92.10;;;;;;5081220;28;20215;-71
2023/06/27 03:45:28;;;;;;;4.07;2.17;;;16.30;92.30;;;;;;5082872;28;20422;-71
2023/06/27 03:47:54;;;;;;;4.23;2.13;;;16.30;92.50;;;;;;5089002;28;20521;-72
2023/06/27 03:50:20;;;;;;;3.17;2.03;;;16.30;92.50;;;;;;5076948;28;20575;-70
2023/06/27 03:52:45;;;;;;;3.10;2.30;;;16.30;92.70;;;;;;5081662;28;20430;-72
2023/06/27 03:55:11;;;;;;;4.43;2.43;;;16.30;93.00;;;;;;5092140;28;20210;-71
2023/06/27 03:57:37;;;;;;;10.00;2.90;;;16.20;93.10;;;;;;5103102;28;20467;-70
2023/06/27 04:00:06;;;;;;;5.00;2.40;;;16.20;93.40;;;;;;5089333;28;20204;-69
2023/06/27 04:02:40;;;;;;;3.93;2.63;;;16.20;93.50;;;;;;5098555;28;20156;-70
2023/06/27 04:05:06;;;;;;;5.37;2.40;;;16.20;93.70;;;;;;5080095;28;20541;-70
2023/06/27 04:07:32;;;;;;;5.90;1.90;;;16.20;93.80;;;;;;5080036;28;20188;-72
2023/06/27 04:09:57;;;;;;;3.43;2.30;;;16.20;93.80;;;;;;5091753;28;20632;-70
2023/06/27 04:12:24;;;;;;;4.93;2.80;;;16.30;93.80;;;;;;5089442;28;20171;-69
2023/06/27 04:14:50;;;;;;;2.60;2.23;;;16.30;93.70;;;;;;5103616;28;20928;-71
2023/06/27 04:17:15;;;;;;;5.20;1.70;;;16.30;93.70;;;;;;5060263;28;20176;-73
2023/06/27 04:19:41;;;;;;;4.80;2.53;;;16.30;93.60;;;;;;5079416;28;20203;-70
2023/06/27 04:22:06;;;;;;;5.03;2.03;;;16.40;93.50;;;;;;5110779;28;20238;-70
2023/06/27 04:24:32;;;;;;;3.53;2.47;;;16.40;93.20;;;;;;5079722;28;20202;-70
2023/06/27 04:26:58;;;;;;;5.70;2.43;;;16.50;93.00;;;;;;5079006;28;20271;-72
2023/06/27 04:29:24;;;;;;;4.50;1.70;;;16.60;92.70;;;;;;5095846;28;20438;-71
2023/06/27 04:31:50;;;;;;;2.63;1.87;;;16.70;92.20;;;;;;5095527;28;20595;-71
2023/06/27 04:34:16;;;;;;;3.30;1.90;;;16.80;91.80;;;;;;5117699;28;20501;-72
2023/06/27 04:36:41;;;;;;;3.27;2.00;;;16.80;91.50;;;;;;5115319;28;20316;-71
2023/06/27 04:39:10;;;;;;;3.50;2.47;;;16.80;91.30;;;;;;5097044;28;20274;-69
2023/06/27 04:41:36;;;;;;;2.57;1.97;;;16.80;91.30;;;;;;5086659;28;20185;-71
2023/06/27 04:44:03;;;;;;;2.60;1.80;;;16.80;91.30;;;;;;5078788;28;20418;-72
2023/06/27 04:46:28;;;;;;;3.43;1.90;;;16.80;91.30;;;;;;5078923;28;20739;-70
2023/06/27 04:48:56;;;;;;;3.00;2.03;;;16.80;91.40;;;;;;5093280;28;20195;-70
2023/06/27 04:51:26;;;;;;;2.90;2.10;;;16.80;91.40;;;;;;5107179;28;20248;-71
2023/06/27 04:53:52;;;;;;;3.50;2.50;;;16.80;91.30;;;;;;5100191;28;20833;-70
2023/06/27 04:56:17;;;;;;;4.20;3.00;;;16.80;91.50;;;;;;5096710;28;20462;-70
2023/06/27 04:58:43;;;;;;;5.60;2.43;;;16.70;91.70;;;;;;5107675;28;20175;-70
2023/06/27 05:01:09;;;;;;;7.23;3.73;;;16.70;91.90;;;;;;5089330;28;20193;-71
2023/06/27 05:03:37;;;;;;;5.13;2.23;;;16.70;92.40;;;;;;5063905;28;20454;-72
2023/06/27 05:06:03;;;;;;;2.97;2.17;;;16.70;92.60;;;;;;5082962;28;20195;-70
2023/06/27 05:08:30;;;;;;;3.30;1.90;;;16.70;92.60;;;;;;5077276;28;20425;-70
2023/06/27 05:10:56;;;;;;;5.50;2.70;;;16.70;92.60;;;;;;5123034;28;20458;-74
2023/06/27 05:13:22;;;;;;;3.60;2.90;;;16.70;92.70;;;;;;5105912;28;20674;-71
2023/06/27 05:15:47;;;;;;;6.50;2.10;;;16.80;92.50;;;;;;5073585;28;20239;-71
2023/06/27 05:18:14;;;;;;;6.03;2.43;;;17.00;92.20;;;;;;5070950;28;20191;-69
2023/06/27 05:20:40;;;;;;;6.60;3.03;;;17.30;91.40;;;;;;5111685;28;20212;-72
2023/06/27 05:23:06;;;;;;;12.10;3.37;;;17.80;88.50;;;;;;5102513;28;20713;-72
2023/06/27 05:25:32;;;;;;;6.60;2.53;;;18.50;82.00;;;;;;5083988;28;20505;-73
2023/06/27 05:27:58;;;;;;;10.13;2.63;;;19.00;75.80;;;;;;5102748;28;20189;-71
2023/06/27 05:30:24;;;;;;;3.70;1.90;;;19.40;71.70;;;;;;5107922;28;20948;-71
2023/06/27 05:32:49;;;;;;;5.90;2.97;;;19.80;68.40;;;;;;5091729;28;20198;-72
2023/06/27 05:35:15;;;;;;;4.47;2.47;;;20.20;66.20;;;;;;5106307;28;20465;-72
2023/06/27 05:37:40;;;;;;;8.23;3.30;;;20.60;64.00;;;;;;5089390;28;20199;-72
2023/06/27 05:40:08;;;;;;;6.10;2.93;;;21.00;61.20;;;;;;5123521;28;20180;-71
2023/06/27 05:42:33;;;;;;;4.07;2.87;;;21.20;59.50;;;;;;5115267;28;20678;-72
2023/06/27 05:44:59;;;;;;;5.87;2.27;;;21.40;58.40;;;;;;5099835;28;20451;-75
2023/06/27 05:47:24;;;;;;;3.40;2.43;;;21.60;58.10;;;;;;5088981;28;20183;-73
2023/06/27 05:49:50;;;;;;;5.00;2.67;;;21.80;57.10;;;;;;5088598;28;20678;-70
2023/06/27 05:52:15;;;;;;;2.90;1.87;;;22.00;57.30;;;;;;5083762;28;20184;-73
2023/06/27 05:54:44;;;;;;;3.73;2.40;;;22.20;56.70;;;;;;5102592;28;20196;-73
2023/06/27 05:57:11;;;;;;;7.53;3.47;;;22.50;55.50;;;;;;5118692;28;20183;-73
2023/06/27 05:59:37;;;;;;;8.53;3.00;;;22.70;54.70;;;;;;5103119;28;20455;-72
2023/06/27 06:02:03;;;;;;;7.50;3.50;;;22.80;54.10;;;;;;5122762;28;20429;-72
2023/06/27 06:04:29;;;;;;;6.20;2.30;;;23.00;53.80;;;;;;5115109;28;20461;-72
2023/06/27 06:06:58;;;;;;;8.30;3.07;;;23.20;53.40;;;;;;5123181;28;20402;-76
2023/06/27 06:09:24;;;;;;;6.93;3.23;;;23.20;52.40;;;;;;5104534;28;20511;-70
2023/06/27 06:11:50;;;;;;;4.47;2.00;;;23.10;52.90;;;;;;5122839;28;20418;-71
2023/06/27 06:14:16;;;;;;;10.33;3.13;;;23.30;52.70;;;;;;5087553;28;20483;-73
2023/06/27 06:16:41;;;;;;;15.70;3.63;;;23.40;52.00;;;;;;5089150;28;20188;-71
2023/06/27 06:19:07;;;;;;;7.57;2.70;;;23.60;52.00;;;;;;5086343;28;20204;-72
2023/06/27 06:21:33;;;;;;;9.60;3.37;;;23.80;51.40;;;;;;5067788;28;20196;-72
2023/06/27 06:23:59;;;;;;;9.43;3.50;;;24.10;51.10;;;;;;5085166;28;20410;-74
2023/06/27 06:26:25;;;;;;;6.50;3.57;;;24.10;50.70;;;;;;5094330;28;20708;-73
2023/06/27 06:28:50;;;;;;;7.27;3.60;;;24.10;50.40;;;;;;5123203;28;20248;-74
2023/06/27 06:31:16;;;;;;;9.03;3.83;;;23.80;50.20;;;;;;5116420;28;20231;-73
2023/06/27 06:33:46;;;;;;;8.40;2.90;;;23.70;50.70;;;;;;5114657;28;20203;-74
2023/06/27 06:36:15;;;;;;;7.37;2.90;;;23.50;51.10;;;;;;5128435;28;20453;-74
2023/06/27 06:38:40;;;;;;;10.10;3.30;;;23.40;51.30;;;;;;5130152;28;20432;-72
2023/06/27 06:41:06;;;;;;;5.50;2.70;;;23.40;51.50;;;;;;5113885;28;20378;-74
2023/06/27 06:43:32;;;;;;;9.33;4.07;;;23.50;51.40;;;;;;5112574;28;20469;-74
2023/06/27 06:45:58;;;;;;;9.63;3.90;;;23.70;51.20;;;;;;5091037;28;20215;-75
2023/06/27 06:48:24;;;;;;;11.20;3.50;;;23.80;50.90;;;;;;5111901;28;20271;-75
2023/06/27 06:50:51;;;;;;;11.00;3.27;;;23.60;51.10;;;;;;5094109;28;20445;-76
2023/06/27 06:53:17;;;;;;;8.27;3.20;;;23.70;51.10;;;;;;5089979;28;20187;-74
2023/06/27 06:55:43;;;;;;;5.20;2.33;;;23.40;51.20;;;;;;5122236;28;20412;-75
2023/06/27 06:58:09;;;;;;;9.80;3.67;;;23.60;51.10;;;;;;5074782;28;20413;-76
2023/06/27 07:00:35;;;;;;;7.00;2.70;;;23.40;51.40;;;;;;5079615;28;20525;-75
2023/06/27 07:03:00;;;;;;;9.60;3.30;;;23.30;52.00;;;;;;5080102;28;20169;-75
2023/06/27 07:05:26;;;;;;;10.67;3.40;;;23.20;52.00;;;;;;5110295;28;20222;-72
2023/06/27 07:07:52;;;;;;;8.10;3.13;;;23.10;52.20;;;;;;5107277;28;20190;-75
2023/06/27 07:10:21;;;;;;;7.60;2.40;;;23.10;52.30;;;;;;5126933;28;20210;-72
2023/06/27 07:12:46;;;;;;;15.20;4.50;;;23.20;52.20;;;;;;5096519;28;20696;-74
2023/06/27 07:15:14;;;;;;;8.80;2.80;;;23.20;52.30;;;;;;5079889;28;20459;-73
2023/06/27 07:17:39;;;;;;;6.80;3.23;;;23.30;52.30;;;;;;5114912;28;20613;-74
2023/06/27 07:20:07;;;;;;;7.90;2.70;;;23.40;52.00;;;;;;5112761;28;20513;-75
2023/06/27 07:22:32;;;;;;;9.90;3.07;;;23.60;51.80;;;;;;5114804;28;20172;-73
2023/06/27 07:24:58;;;;;;;7.60;3.10;;;23.90;51.20;;;;;;5123511;28;20728;-76
2023/06/27 07:27:24;;;;;;;7.30;2.67;;;23.90;50.60;;;;;;5081204;28;20169;-73
2023/06/27 07:29:50;;;;;;;9.50;2.30;;;23.80;51.10;;;;;;5063524;28;20476;-72
2023/06/27 07:32:15;;;;;;;8.73;3.03;;;23.70;51.30;;;;;;5129655;28;20172;-72
2023/06/27 07:34:41;;;;;;;5.33;2.30;;;23.50;51.60;;;;;;5092936;28;20212;-74
2023/06/27 07:37:07;;;;;;;6.33;2.60;;;23.50;51.60;;;;;;5128757;28;20474;-74
2023/06/27 07:39:32;;;;;;;5.63;2.37;;;23.40;51.60;;;;;;5111854;28;20192;-73
2023/06/27 07:41:58;;;;;;;9.37;3.40;;;23.20;51.80;;;;;;5093704;28;20180;-73
2023/06/27 07:44:25;;;;;;;11.03;3.37;;;22.90;52.50;;;;;;5092257;28;20185;-73
2023/06/27 07:46:50;;;;;;;6.77;2.20;;;22.80;53.00;;;;;;5055774;28;20192;-73
2023/06/27 07:49:17;;;;;;;8.57;3.10;;;22.70;53.30;;;;;;5073126;28;20439;-75
2023/06/27 07:51:43;;;;;;;11.20;3.53;;;22.50;53.30;;;;;;5106551;28;20207;-74
2023/06/27 07:54:09;;;;;;;10.47;3.57;;;22.20;53.70;;;;;;5082937;28;20395;-74
2023/06/27 07:56:35;;;;;;;6.53;2.50;;;22.00;54.30;;;;;;5097959;28;20458;-78
2023/06/27 07:59:02;;;;;;;9.63;3.20;;;21.80;54.60;;;;;;5072510;28;20511;-72
2023/06/27 08:01:28;;;;;;;8.83;2.80;;;21.60;55.60;;;;;;5076935;28;20191;-72
2023/06/27 08:03:53;;;;;;;5.60;2.00;;;21.50;56.00;;;;;;5107523;28;20453;-74
2023/06/27 08:06:19;;;;;;;6.10;2.43;;;21.60;56.20;;;;;;5087318;28;20246;-73
2023/06/27 08:08:47;;;;;;;10.40;2.90;;;21.80;56.20;;;;;;5103502;28;20216;-73
2023/06/27 08:11:13;;;;;;;7.60;2.97;;;21.90;55.10;;;;;;5096251;28;20288;-73
2023/06/27 08:13:41;;;;;;;7.03;3.00;;;21.90;55.10;;;;;;5087674;28;20705;-72
2023/06/27 08:16:08;;;;;;;11.57;3.67;;;22.10;54.80;;;;;;5097693;28;20745;-75
2023/06/27 08:18:34;;;;;;;6.83;3.00;;;22.10;54.90;;;;;;5053432;28;20708;-75
2023/06/27 08:21:00;;;;;;;12.70;3.07;;;22.10;54.90;;;;;;5108246;28;20434;-76
2023/06/27 08:23:26;;;;;;;7.33;3.00;;;22.40;54.90;;;;;;5088513;28;20186;-73
2023/06/27 08:25:53;;;;;;;10.17;2.70;;;22.50;53.00;;;;;;5101763;28;20464;-74
2023/06/27 08:28:18;;;;;;;6.40;2.53;;;22.50;53.30;;;;;;5111407;28;20407;-75
2023/06/27 08:30:44;;;;;;;6.17;2.70;;;22.60;52.80;;;;;;5091519;28;20484;-76
2023/06/27 08:33:09;;;;;;;7.43;2.70;;;22.70;52.60;;;;;;5097502;28;20244;-75
2023/06/27 08:35:36;;;;;;;5.07;2.10;;;22.90;52.50;;;;;;5095250;28;20237;-74
2023/06/27 08:38:01;;;;;;;6.30;2.20;;;23.30;52.20;;;;;;5106951;28;20206;-73
2023/06/27 08:40:28;;;;;;;11.70;3.03;;;23.80;51.20;;;;;;5096587;28;20438;-75
2023/06/27 08:42:54;;;;;;;7.00;3.03;;;24.10;50.00;;;;;;5055582;28;20185;-74
2023/06/27 08:45:19;;;;;;;5.90;2.43;;;24.00;50.20;;;;;;5068980;28;20435;-74
2023/06/27 08:47:47;;;;;;;16.73;3.70;;;24.20;50.50;;;;;;5069714;28;20169;-75
2023/06/27 08:50:13;;;;;;;10.07;2.87;;;24.30;50.10;;;;;;5106713;28;20233;-74
2023/06/27 08:52:51;;;;;;;8.27;3.40;;;24.10;51.60;;;;;;5096639;28;20419;-76
2023/06/27 08:55:35;;;;;;;7.43;2.90;;;24.10;50.90;;;;;;5070422;28;20449;-75
2023/06/27 08:58:04;;;;;;;8.50;3.13;;;24.30;49.80;;;;;;5125690;28;20802;-73
2023/06/27 09:00:31;;;;;;;6.60;2.60;;;24.30;49.90;;;;;;5087979;28;20851;-73
2023/06/27 09:02:57;;;;;;;6.97;3.00;;;24.40;49.60;;;;;;5093774;28;20485;-73
2023/06/27 09:05:24;;;;;;;9.43;3.23;;;24.60;48.90;;;;;;5071117;28;20472;-71
2023/06/27 09:07:50;;;;;;;12.93;3.33;;;24.70;48.90;;;;;;5070511;28;20181;-75
2023/06/27 09:10:15;;;;;;;6.47;2.93;;;24.60;48.60;;;;;;5088185;28;20756;-76
2023/06/27 09:12:43;;;;;;;4.63;2.30;;;24.50;47.70;;;;;;5082498;28;20177;-73
2023/06/27 09:15:12;;;;;;;7.00;2.47;;;24.60;47.70;;;;;;5084100;28;20216;-76
2023/06/27 09:17:38;;;;;;;7.33;3.20;;;24.70;47.30;;;;;;5081237;28;20582;-72
2023/06/27 09:20:05;;;;;;;6.37;2.50;;;24.90;47.50;;;;;;5083836;28;20508;-74
2023/06/27 09:22:31;;;;;;;7.77;2.90;;;24.70;47.70;;;;;;5087036;28;20409;-75
2023/06/27 09:25:10;;;;;;;5.67;2.50;;;24.60;47.50;;;;;;5106847;28;20415;-74
2023/06/27 09:27:37;;;;;;;6.20;2.40;;;24.50;47.00;;;;;;5088665;28;20333;-73
2023/06/27 09:30:07;;;;;;;6.17;2.27;;;24.60;46.60;;;;;;5071705;28;20442;-75
2023/06/27 09:32:33;;;;;;;5.13;2.20;;;24.70;45.80;;;;;;5107036;28;20446;-75
2023/06/27 09:35:03;;;;;;;11.47;2.57;;;25.00;46.40;;;;;;5091710;28;20473;-75
2023/06/27 09:37:31;;;;;;;7.90;3.00;;;25.30;45.10;;;;;;5075883;28;20411;-74
2023/06/27 09:39:57;;;;;;;6.67;2.97;;;25.30;43.80;;;;;;5092201;28;20427;-76
2023/06/27 09:42:22;;;;;;;7.37;2.60;;;25.20;43.40;;;;;;5055504;28;20439;-75
2023/06/27 09:44:48;;;;;;;4.60;1.90;;;24.80;43.80;;;;;;5072348;28;20403;-76
2023/06/27 09:47:13;;;;;;;4.40;2.10;;;24.70;44.20;;;;;;5088848;28;20189;-77
2023/06/27 09:49:43;;;;;;;7.10;2.90;;;24.30;44.60;;;;;;5069845;28;20208;-74
2023/06/27 09:52:11;;;;;;;4.63;2.30;;;24.40;45.40;;;;;;5098886;28;20218;-74
2023/06/27 09:54:46;;;;;;;4.10;1.87;;;24.50;45.00;;;;;;5078568;28;20424;-76
2023/06/27 09:57:13;;;;;;;5.77;2.10;;;24.60;43.00;;;;;;5085436;28;20936;-74
2023/06/27 09:59:38;;;;;;;4.93;2.23;;;24.30;43.40;;;;;;5102052;28;20455;-74
2023/06/27 10:02:11;;;;;;;3.40;2.23;;;24.50;43.90;;;;;;5066113;28;20404;-75
2023/06/27 10:04:37;;;;;;;5.50;2.13;;;24.70;44.20;;;;;;5089654;28;20208;-76
2023/06/27 10:07:03;;;;;;;8.90;2.70;;;24.40;44.60;;;;;;5094143;28;20498;-76
2023/06/27 10:09:28;;;;;;;5.17;3.63;;;24.30;44.50;;;;;;5114033;28;20599;-74
2023/06/27 10:11:54;;;;;;;6.40;2.27;;;24.40;43.20;;;;;;5108277;28;20409;-76
2023/06/27 10:14:21;;;;;;;4.80;1.80;;;24.60;42.70;;;;;;5106280;28;20184;-74
2023/06/27 10:16:47;;;;;;;3.50;1.90;;;24.70;42.70;;;;;;5078461;28;20203;-73
2023/06/27 10:19:13;;;;;;;4.37;1.80;;;24.40;43.00;;;;;;5114183;28;20532;-73
2023/06/27 10:21:39;;;;;;;3.70;1.70;;;24.50;43.00;;;;;;5073234;28;20426;-75
2023/06/27 10:24:06;;;;;;;3.60;1.90;;;24.90;42.30;;;;;;5080231;28;20414;-76
2023/06/27 10:26:32;;;;;;;4.37;2.33;;;25.00;41.60;;;;;;5110280;28;20402;-77
2023/06/27 10:28:58;;;;;;;4.30;2.20;;;25.10;41.70;;;;;;5096701;28;20411;-75
2023/06/27 10:31:42;;;;;;;6.10;2.37;;;25.10;41.50;;;;;;5081205;28;20462;-75
2023/06/27 10:34:10;;;;;;;12.80;2.73;;;25.20;41.60;;;;;;5065578;28;20193;-76
2023/06/27 10:36:57;;;;;;;3.90;1.93;;;25.40;41.10;;;;;;5086503;28;20855;-76
2023/06/27 10:39:34;;;;;;;3.13;1.70;;;25.50;41.20;;;;;;5129707;28;20697;-77
2023/06/27 10:42:25;;;;;;;8.57;2.60;;;25.60;39.90;;;;;;5093289;28;20485;-73
2023/06/27 10:45:00;;;;;;;8.00;2.10;;;25.80;39.60;;;;;;5073068;28;20520;-75
2023/06/27 10:47:27;;;;;;;5.50;2.10;;;25.80;39.90;;;;;;5109670;28;20401;-76
2023/06/27 10:50:00;;;;;;;8.57;3.50;;;25.80;40.30;;;;;;5093107;28;20465;-74
2023/06/27 10:52:26;;;;;;;7.20;2.60;;;26.00;40.70;;;;;;5103273;28;20471;-76
2023/06/27 10:55:14;;;;;;;6.63;2.83;;;26.20;38.50;;;;;;5093013;28;20458;-74
2023/06/27 10:57:42;;;;;;;5.77;2.50;;;26.10;38.20;;;;;;5093497;28;20241;-76
2023/06/27 11:00:15;;;;;;;3.30;1.93;;;26.30;38.40;;;;;;5086964;28;20442;-77
2023/06/27 11:02:42;;;;;;;4.83;2.33;;;26.30;37.90;;;;;;5094019;28;20443;-76
2023/06/27 11:05:12;;;;;;;4.10;2.10;;;26.10;38.10;;;;;;5094611;28;20520;-75
2023/06/27 11:07:38;;;;;;;6.60;2.47;;;25.80;39.40;;;;;;5090097;28;20492;-75
2023/06/27 11:10:25;;;;;;;4.10;2.20;;;25.60;40.30;;;;;;5100397;28;20466;-74
2023/06/27 11:13:11;;;;;;;5.97;2.90;;;25.80;39.70;;;;;;5063315;28;20189;-76
2023/06/27 11:15:37;;;;;;;5.90;3.07;;;26.00;39.50;;;;;;5069802;28;20455;-74
2023/06/27 11:18:05;;;;;;;7.97;3.17;;;26.20;38.40;;;;;;5082354;28;20415;-74
2023/06/27 11:20:34;;;;;;;6.17;3.00;;;26.50;37.90;;;;;;5081484;28;20451;-76
2023/06/27 11:23:03;;;;;;;9.60;2.60;;;26.60;38.30;;;;;;5098910;28;20414;-75
2023/06/27 11:25:35;;;;;;;5.83;2.40;;;26.50;39.40;;;;;;5078866;28;20430;-74
2023/06/27 11:28:00;;;;;;;10.40;2.67;;;26.50;38.10;;;;;;5093744;28;20399;-76
2023/06/27 11:30:28;;;;;;;3.37;2.10;;;26.40;37.70;;;;;;5104934;28;20453;-77
2023/06/27 11:32:57;;;;;;;7.50;2.17;;;26.10;37.80;;;;;;5086049;28;20185;-76
2023/06/27 11:35:23;;;;;;;4.27;2.50;;;25.80;38.80;;;;;;5109418;28;20944;-75
2023/06/27 11:37:54;;;;;;;5.60;2.70;;;25.70;39.20;;;;;;5089443;28;20751;-75
2023/06/27 11:40:27;;;;;;;5.60;2.40;;;25.90;39.20;;;;;;5086652;28;20439;-76
2023/06/27 11:43:08;;;;;;;6.63;2.33;;;26.40;38.80;;;;;;5070270;28;20413;-76
2023/06/27 11:45:36;;;;;;;4.20;2.70;;;26.70;38.10;;;;;;5086785;28;20457;-76
2023/06/27 11:48:02;;;;;;;6.23;2.33;;;26.70;38.30;;;;;;5071649;28;20408;-75
2023/06/27 11:50:29;;;;;;;3.90;2.30;;;26.80;38.40;;;;;;5086738;28;20481;-74
2023/06/27 11:52:58;;;;;;;7.13;2.27;;;26.60;36.90;;;;;;5088074;28;20457;-74
2023/06/27 11:55:24;;;;;;;2.73;2.00;;;26.60;36.10;;;;;;5104486;28;20446;-76
2023/06/27 11:57:55;;;;;;;7.47;2.20;;;26.70;36.40;;;;;;5107676;28;20418;-76
2023/06/27 12:00:28;;;;;;;4.33;2.20;;;27.00;36.40;;;;;;5087356;28;20620;-76
2023/06/27 12:02:56;;;;;;;7.60;2.20;;;27.10;36.60;;;;;;5052056;28;20423;-76
2023/06/27 12:05:24;;;;;;;4.27;2.30;;;27.20;36.30;;;;;;5080292;28;20466;-77
2023/06/27 12:08:08;;;;;;;5.17;1.97;;;26.90;36.20;;;;;;5108343;28;20454;-74
2023/06/27 12:10:54;;;;;;;6.10;2.20;;;27.00;36.30;;;;;;5109941;28;20853;-75
2023/06/27 12:13:19;;;;;;;8.70;2.40;;;26.90;36.40;;;;;;5090519;28;20534;-75
2023/06/27 12:15:46;;;;;;;2.70;2.00;;;26.60;36.20;;;;;;5093196;28;20465;-73
2023/06/27 12:18:23;;;;;;;5.03;2.60;;;26.10;37.60;;;;;;5088849;28;20189;-77
2023/06/27 12:20:51;;;;;;;3.53;1.73;;;25.80;39.10;;;;;;5089652;28;20435;-74
2023/06/27 12:23:17;;;;;;;8.30;2.23;;;25.70;39.40;;;;;;5086517;28;20406;-77
2023/06/27 12:25:43;;;;;;;9.97;2.40;;;25.70;38.90;;;;;;5086868;28;20428;-77
2023/06/27 12:28:09;;;;;;;5.10;2.57;;;25.80;38.30;;;;;;5055673;28;20408;-76
2023/06/27 12:30:35;;;;;;;6.50;2.67;;;25.80;38.70;;;;;;5098857;28;20211;-76
2023/06/27 12:33:01;;;;;;;11.53;2.40;;;25.80;39.30;;;;;;5109525;28;20410;-75
2023/06/27 12:35:27;;;;;;;5.53;2.73;;;25.80;39.40;;;;;;5067088;28;20259;-76
2023/06/27 12:37:53;;;;;;;7.53;2.90;;;25.60;39.40;;;;;;5092077;28;20736;-75
2023/06/27 12:40:22;;;;;;;5.50;2.43;;;25.70;39.10;;;;;;5110020;28;20272;-77
2023/06/27 12:42:50;;;;;;;4.53;2.50;;;25.80;38.30;;;;;;5068866;28;20477;-77
2023/06/27 12:45:16;;;;;;;5.33;1.77;;;26.10;37.30;;;;;;5060947;28;20428;-75
2023/06/27 12:47:43;;;;;;;4.37;2.33;;;26.10;37.30;;;;;;5050716;28;20500;-76